Mukdahan, Thailand
Current Conditions -  °F | °C
As of 11:00 AM on Friday 19 Dec 2014 (Local Time) from VTUU Reporting Station
Clear Clear  
Wind Chill: 25°   Ceiling: Unl
Heat Index: 26°   Visibility: 6mi
Dew Point: 15°   Wind: 10mph
Humidity: 54%   Direction: 30°NNE
Pressure: 30.03"   Gusts: NA
Location:  16.54°N, 104.72°E
Report Text: VTUU 190400Z 03009KT 9000 NSC 25/15 Q1017 A3006NOSIG
Loading
Personal Weather Stations






























Interactive Weather Map New forecast layout! Learn more

10-Day Weather Forecast

Advertisements
Track Severe Weather on mobile